sensor_id;sensor_type;location;lat;lon;timestamp;P1;durP1;ratioP1;P2;durP2;ratioP2
17207;SDS011;8720;48.488;9.202;2023-10-31T00:02:21;0.90;;;0.50;;
17207;SDS011;8720;48.488;9.202;2023-10-31T00:04:49;1.40;;;0.50;;
17207;SDS011;8720;48.488;9.202;2023-10-31T00:07:16;1.00;;;0.60;;
17207;SDS011;8720;48.488;9.202;2023-10-31T00:09:44;1.10;;;0.60;;
17207;SDS011;8720;48.488;9.202;2023-10-31T00:12:11;0.90;;;0.60;;
17207;SDS011;8720;48.488;9.202;2023-10-31T00:14:39;0.90;;;0.50;;
17207;SDS011;8720;48.488;9.202;2023-10-31T00:17:08;0.90;;;0.50;;
17207;SDS011;8720;48.488;9.202;2023-10-31T00:19:35;1.00;;;0.50;;
17207;SDS011;8720;48.488;9.202;2023-10-31T00:22:03;0.90;;;0.50;;
17207;SDS011;8720;48.488;9.202;2023-10-31T00:24:30;0.90;;;0.50;;
17207;SDS011;8720;48.488;9.202;2023-10-31T00:26:58;1.10;;;0.60;;
17207;SDS011;8720;48.488;9.202;2023-10-31T00:29:25;0.90;;;0.60;;
17207;SDS011;8720;48.488;9.202;2023-10-31T00:31:53;1.00;;;0.60;;
17207;SDS011;8720;48.488;9.202;2023-10-31T00:34:22;1.00;;;0.60;;
17207;SDS011;8720;48.488;9.202;2023-10-31T00:36:49;1.00;;;0.60;;
17207;SDS011;8720;48.488;9.202;2023-10-31T00:39:16;0.90;;;0.60;;
17207;SDS011;8720;48.488;9.202;2023-10-31T00:41:45;1.00;;;0.70;;
17207;SDS011;8720;48.488;9.202;2023-10-31T00:44:12;2.13;;;0.60;;
17207;SDS011;8720;48.488;9.202;2023-10-31T00:46:40;1.00;;;0.60;;
17207;SDS011;8720;48.488;9.202;2023-10-31T00:49:08;1.00;;;0.60;;
17207;SDS011;8720;48.488;9.202;2023-10-31T00:51:37;2.20;;;0.80;;
17207;SDS011;8720;48.488;9.202;2023-10-31T00:54:05;0.97;;;0.70;;
17207;SDS011;8720;48.488;9.202;2023-10-31T00:56:32;1.00;;;0.67;;
17207;SDS011;8720;48.488;9.202;2023-10-31T00:59:00;1.97;;;0.60;;
17207;SDS011;8720;48.488;9.202;2023-10-31T01:01:28;1.67;;;0.70;;
17207;SDS011;8720;48.488;9.202;2023-10-31T01:03:55;1.30;;;0.80;;
17207;SDS011;8720;48.488;9.202;2023-10-31T01:06:24;1.20;;;0.70;;
17207;SDS011;8720;48.488;9.202;2023-10-31T01:08:52;1.77;;;0.70;;
17207;SDS011;8720;48.488;9.202;2023-10-31T01:11:20;1.00;;;0.60;;
17207;SDS011;8720;48.488;9.202;2023-10-31T01:13:47;1.30;;;0.73;;
17207;SDS011;8720;48.488;9.202;2023-10-31T01:16:15;1.00;;;0.60;;
17207;SDS011;8720;48.488;9.202;2023-10-31T01:18:43;1.00;;;0.60;;
17207;SDS011;8720;48.488;9.202;2023-10-31T01:21:11;1.00;;;0.70;;
17207;SDS011;8720;48.488;9.202;2023-10-31T01:23:38;2.20;;;0.60;;
17207;SDS011;8720;48.488;9.202;2023-10-31T01:26:07;2.10;;;0.70;;
17207;SDS011;8720;48.488;9.202;2023-10-31T01:28:34;1.20;;;0.70;;
17207;SDS011;8720;48.488;9.202;2023-10-31T01:31:02;1.40;;;0.70;;
17207;SDS011;8720;48.488;9.202;2023-10-31T01:33:29;1.27;;;1.00;;
17207;SDS011;8720;48.488;9.202;2023-10-31T01:35:57;1.00;;;0.60;;
17207;SDS011;8720;48.488;9.202;2023-10-31T01:38:25;1.00;;;0.70;;
17207;SDS011;8720;48.488;9.202;2023-10-31T01:40:53;1.00;;;0.70;;
17207;SDS011;8720;48.488;9.202;2023-10-31T01:43:31;1.10;;;0.67;;
17207;SDS011;8720;48.488;9.202;2023-10-31T01:46:01;1.00;;;0.70;;
17207;SDS011;8720;48.488;9.202;2023-10-31T01:48:29;4.20;;;0.70;;
17207;SDS011;8720;48.488;9.202;2023-10-31T01:50:58;1.00;;;0.70;;
17207;SDS011;8720;48.488;9.202;2023-10-31T01:53:29;1.10;;;0.60;;
17207;SDS011;8720;48.488;9.202;2023-10-31T01:55:58;1.47;;;0.80;;
17207;SDS011;8720;48.488;9.202;2023-10-31T01:58:29;1.20;;;0.70;;
17207;SDS011;8720;48.488;9.202;2023-10-31T02:01:01;1.30;;;0.70;;
17207;SDS011;8720;48.488;9.202;2023-10-31T02:03:30;1.47;;;0.80;;
17207;SDS011;8720;48.488;9.202;2023-10-31T02:05:58;1.40;;;0.87;;
17207;SDS011;8720;48.488;9.202;2023-10-31T02:08:25;1.07;;;0.80;;
17207;SDS011;8720;48.488;9.202;2023-10-31T02:10:53;1.30;;;0.70;;
17207;SDS011;8720;48.488;9.202;2023-10-31T02:13:20;1.00;;;0.73;;
17207;SDS011;8720;48.488;9.202;2023-10-31T02:15:50;0.93;;;0.67;;
17207;SDS011;8720;48.488;9.202;2023-10-31T02:18:17;1.07;;;0.70;;
17207;SDS011;8720;48.488;9.202;2023-10-31T02:20:45;1.30;;;0.80;;
17207;SDS011;8720;48.488;9.202;2023-10-31T02:23:13;1.43;;;0.80;;
17207;SDS011;8720;48.488;9.202;2023-10-31T02:25:42;1.00;;;0.70;;
17207;SDS011;8720;48.488;9.202;2023-10-31T02:28:09;1.30;;;0.80;;
17207;SDS011;8720;48.488;9.202;2023-10-31T02:30:37;2.90;;;0.70;;
17207;SDS011;8720;48.488;9.202;2023-10-31T02:33:04;1.30;;;0.70;;
17207;SDS011;8720;48.488;9.202;2023-10-31T02:35:32;1.10;;;0.70;;
17207;SDS011;8720;48.488;9.202;2023-10-31T02:37:59;1.10;;;0.80;;
17207;SDS011;8720;48.488;9.202;2023-10-31T02:40:28;1.10;;;0.77;;
17207;SDS011;8720;48.488;9.202;2023-10-31T02:42:55;1.27;;;0.97;;
17207;SDS011;8720;48.488;9.202;2023-10-31T02:45:23;1.10;;;0.77;;
17207;SDS011;8720;48.488;9.202;2023-10-31T02:47:50;1.17;;;0.80;;
17207;SDS011;8720;48.488;9.202;2023-10-31T02:50:18;1.50;;;0.73;;
17207;SDS011;8720;48.488;9.202;2023-10-31T02:52:45;1.30;;;0.80;;
17207;SDS011;8720;48.488;9.202;2023-10-31T02:55:13;1.23;;;0.77;;
17207;SDS011;8720;48.488;9.202;2023-10-31T02:57:42;1.10;;;0.70;;
17207;SDS011;8720;48.488;9.202;2023-10-31T03:00:10;2.60;;;1.00;;
17207;SDS011;8720;48.488;9.202;2023-10-31T03:03:03;1.20;;;0.80;;
17207;SDS011;8720;48.488;9.202;2023-10-31T03:05:30;1.43;;;0.80;;
17207;SDS011;8720;48.488;9.202;2023-10-31T03:07:58;1.60;;;0.70;;
17207;SDS011;8720;48.488;9.202;2023-10-31T03:10:26;1.00;;;0.70;;
17207;SDS011;8720;48.488;9.202;2023-10-31T03:12:55;1.70;;;0.80;;
17207;SDS011;8720;48.488;9.202;2023-10-31T03:15:22;1.13;;;0.80;;
17207;SDS011;8720;48.488;9.202;2023-10-31T03:17:49;1.57;;;0.90;;
17207;SDS011;8720;48.488;9.202;2023-10-31T03:20:17;1.87;;;0.90;;
17207;SDS011;8720;48.488;9.202;2023-10-31T03:22:44;1.10;;;0.87;;
17207;SDS011;8720;48.488;9.202;2023-10-31T03:25:12;2.77;;;0.80;;
17207;SDS011;8720;48.488;9.202;2023-10-31T03:27:39;2.67;;;1.10;;
17207;SDS011;8720;48.488;9.202;2023-10-31T03:30:09;1.37;;;0.80;;
17207;SDS011;8720;48.488;9.202;2023-10-31T03:32:37;1.57;;;0.90;;
17207;SDS011;8720;48.488;9.202;2023-10-31T03:35:05;3.23;;;0.80;;
17207;SDS011;8720;48.488;9.202;2023-10-31T03:37:33;1.20;;;0.80;;
17207;SDS011;8720;48.488;9.202;2023-10-31T03:40:02;1.13;;;0.80;;
17207;SDS011;8720;48.488;9.202;2023-10-31T03:42:30;1.47;;;1.00;;
17207;SDS011;8720;48.488;9.202;2023-10-31T03:45:01;2.90;;;0.97;;
17207;SDS011;8720;48.488;9.202;2023-10-31T03:47:30;1.57;;;0.90;;
17207;SDS011;8720;48.488;9.202;2023-10-31T03:49:57;2.23;;;1.00;;
17207;SDS011;8720;48.488;9.202;2023-10-31T03:52:24;2.00;;;1.10;;
17207;SDS011;8720;48.488;9.202;2023-10-31T03:54:52;0.93;;;0.60;;
17207;SDS011;8720;48.488;9.202;2023-10-31T03:57:20;1.40;;;1.00;;
17207;SDS011;8720;48.488;9.202;2023-10-31T03:59:47;1.00;;;0.70;;
17207;SDS011;8720;48.488;9.202;2023-10-31T04:02:15;1.20;;;0.80;;
17207;SDS011;8720;48.488;9.202;2023-10-31T04:04:43;1.10;;;0.80;;
17207;SDS011;8720;48.488;9.202;2023-10-31T04:07:11;2.33;;;2.13;;
17207;SDS011;8720;48.488;9.202;2023-10-31T04:09:38;1.80;;;1.63;;
17207;SDS011;8720;48.488;9.202;2023-10-31T04:12:06;1.70;;;1.10;;
17207;SDS011;8720;48.488;9.202;2023-10-31T04:14:34;1.20;;;0.87;;
17207;SDS011;8720;48.488;9.202;2023-10-31T04:17:01;1.10;;;0.70;;
17207;SDS011;8720;48.488;9.202;2023-10-31T04:19:29;1.80;;;0.73;;
17207;SDS011;8720;48.488;9.202;2023-10-31T04:21:58;1.33;;;0.90;;
17207;SDS011;8720;48.488;9.202;2023-10-31T04:24:25;1.47;;;0.73;;
17207;SDS011;8720;48.488;9.202;2023-10-31T04:26:53;1.23;;;0.90;;
17207;SDS011;8720;48.488;9.202;2023-10-31T04:29:20;1.13;;;0.70;;
17207;SDS011;8720;48.488;9.202;2023-10-31T04:31:48;1.10;;;0.67;;
17207;SDS011;8720;48.488;9.202;2023-10-31T04:34:15;2.27;;;0.70;;
17207;SDS011;8720;48.488;9.202;2023-10-31T04:36:42;1.33;;;0.70;;
17207;SDS011;8720;48.488;9.202;2023-10-31T04:39:11;1.30;;;0.80;;
17207;SDS011;8720;48.488;9.202;2023-10-31T04:41:39;3.27;;;1.00;;
17207;SDS011;8720;48.488;9.202;2023-10-31T04:44:06;1.10;;;0.70;;
17207;SDS011;8720;48.488;9.202;2023-10-31T04:46:33;1.40;;;0.80;;
17207;SDS011;8720;48.488;9.202;2023-10-31T04:49:01;1.10;;;0.70;;
17207;SDS011;8720;48.488;9.202;2023-10-31T04:51:32;1.10;;;0.70;;
17207;SDS011;8720;48.488;9.202;2023-10-31T04:54:00;2.13;;;0.83;;
17207;SDS011;8720;48.488;9.202;2023-10-31T04:56:29;4.70;;;2.57;;
17207;SDS011;8720;48.488;9.202;2023-10-31T04:58:57;2.87;;;1.30;;
17207;SDS011;8720;48.488;9.202;2023-10-31T05:01:24;1.90;;;1.07;;
17207;SDS011;8720;48.488;9.202;2023-10-31T05:03:52;1.50;;;1.10;;
17207;SDS011;8720;48.488;9.202;2023-10-31T05:06:19;2.13;;;0.90;;
17207;SDS011;8720;48.488;9.202;2023-10-31T05:08:48;1.57;;;1.20;;
17207;SDS011;8720;48.488;9.202;2023-10-31T05:11:16;1.90;;;1.47;;
17207;SDS011;8720;48.488;9.202;2023-10-31T05:13:45;1.17;;;0.83;;
17207;SDS011;8720;48.488;9.202;2023-10-31T05:16:12;2.03;;;0.80;;
17207;SDS011;8720;48.488;9.202;2023-10-31T05:18:40;1.00;;;0.80;;
17207;SDS011;8720;48.488;9.202;2023-10-31T05:21:07;1.23;;;0.70;;
17207;SDS011;8720;48.488;9.202;2023-10-31T05:23:34;1.10;;;0.77;;
17207;SDS011;8720;48.488;9.202;2023-10-31T05:26:04;1.00;;;0.70;;
17207;SDS011;8720;48.488;9.202;2023-10-31T05:28:32;1.17;;;0.70;;
17207;SDS011;8720;48.488;9.202;2023-10-31T05:31:00;1.50;;;0.87;;
17207;SDS011;8720;48.488;9.202;2023-10-31T05:33:28;1.10;;;0.70;;
17207;SDS011;8720;48.488;9.202;2023-10-31T05:35:56;3.23;;;0.80;;
17207;SDS011;8720;48.488;9.202;2023-10-31T05:38:23;2.53;;;0.80;;
17207;SDS011;8720;48.488;9.202;2023-10-31T05:40:50;1.23;;;0.80;;
17207;SDS011;8720;48.488;9.202;2023-10-31T05:43:17;0.93;;;0.70;;
17207;SDS011;8720;48.488;9.202;2023-10-31T05:45:45;1.33;;;0.80;;
17207;SDS011;8720;48.488;9.202;2023-10-31T05:48:13;1.00;;;0.70;;
17207;SDS011;8720;48.488;9.202;2023-10-31T05:50:41;1.00;;;0.60;;
17207;SDS011;8720;48.488;9.202;2023-10-31T05:53:09;1.50;;;0.80;;
17207;SDS011;8720;48.488;9.202;2023-10-31T05:55:38;0.97;;;0.60;;
17207;SDS011;8720;48.488;9.202;2023-10-31T05:58:05;5.63;;;0.90;;
17207;SDS011;8720;48.488;9.202;2023-10-31T06:00:33;1.43;;;0.80;;
17207;SDS011;8720;48.488;9.202;2023-10-31T06:03:01;1.57;;;0.80;;
17207;SDS011;8720;48.488;9.202;2023-10-31T06:05:30;1.63;;;0.80;;
17207;SDS011;8720;48.488;9.202;2023-10-31T06:07:57;1.77;;;0.70;;
17207;SDS011;8720;48.488;9.202;2023-10-31T06:10:27;2.80;;;0.87;;
17207;SDS011;8720;48.488;9.202;2023-10-31T06:12:55;1.37;;;0.80;;
17207;SDS011;8720;48.488;9.202;2023-10-31T06:15:22;1.67;;;0.80;;
17207;SDS011;8720;48.488;9.202;2023-10-31T06:17:49;1.10;;;0.90;;
17207;SDS011;8720;48.488;9.202;2023-10-31T06:20:17;1.13;;;0.80;;
17207;SDS011;8720;48.488;9.202;2023-10-31T06:22:46;2.90;;;0.70;;
17207;SDS011;8720;48.488;9.202;2023-10-31T06:25:13;1.37;;;0.87;;
17207;SDS011;8720;48.488;9.202;2023-10-31T06:27:40;1.10;;;0.80;;
17207;SDS011;8720;48.488;9.202;2023-10-31T06:30:08;1.30;;;0.80;;
17207;SDS011;8720;48.488;9.202;2023-10-31T06:32:38;2.07;;;0.80;;
17207;SDS011;8720;48.488;9.202;2023-10-31T06:35:06;1.57;;;0.80;;
17207;SDS011;8720;48.488;9.202;2023-10-31T06:37:34;1.20;;;0.90;;
17207;SDS011;8720;48.488;9.202;2023-10-31T06:40:03;1.20;;;1.00;;
17207;SDS011;8720;48.488;9.202;2023-10-31T06:42:32;1.30;;;1.03;;
17207;SDS011;8720;48.488;9.202;2023-10-31T06:45:01;1.20;;;0.90;;
17207;SDS011;8720;48.488;9.202;2023-10-31T06:47:29;1.47;;;0.90;;
17207;SDS011;8720;48.488;9.202;2023-10-31T06:49:57;1.57;;;1.00;;
17207;SDS011;8720;48.488;9.202;2023-10-31T06:52:24;1.10;;;0.87;;
17207;SDS011;8720;48.488;9.202;2023-10-31T06:54:52;1.37;;;0.90;;
17207;SDS011;8720;48.488;9.202;2023-10-31T06:57:21;1.63;;;0.90;;
17207;SDS011;8720;48.488;9.202;2023-10-31T06:59:48;2.27;;;0.90;;
17207;SDS011;8720;48.488;9.202;2023-10-31T07:02:15;1.17;;;0.97;;
17207;SDS011;8720;48.488;9.202;2023-10-31T07:04:43;1.77;;;1.00;;
17207;SDS011;8720;48.488;9.202;2023-10-31T07:07:10;1.87;;;0.90;;
17207;SDS011;8720;48.488;9.202;2023-10-31T07:09:37;1.57;;;0.90;;
17207;SDS011;8720;48.488;9.202;2023-10-31T07:12:07;1.40;;;0.90;;
17207;SDS011;8720;48.488;9.202;2023-10-31T07:14:36;1.50;;;1.00;;
17207;SDS011;8720;48.488;9.202;2023-10-31T07:17:03;1.30;;;1.10;;
17207;SDS011;8720;48.488;9.202;2023-10-31T07:19:31;3.10;;;0.80;;
17207;SDS011;8720;48.488;9.202;2023-10-31T07:21:58;1.80;;;1.10;;
17207;SDS011;8720;48.488;9.202;2023-10-31T07:24:25;2.73;;;1.37;;
17207;SDS011;8720;48.488;9.202;2023-10-31T07:26:53;1.50;;;1.20;;
17207;SDS011;8720;48.488;9.202;2023-10-31T07:29:20;1.13;;;0.80;;
17207;SDS011;8720;48.488;9.202;2023-10-31T07:31:49;1.30;;;0.90;;
17207;SDS011;8720;48.488;9.202;2023-10-31T07:34:16;1.87;;;1.07;;
17207;SDS011;8720;48.488;9.202;2023-10-31T07:36:44;1.90;;;1.70;;
17207;SDS011;8720;48.488;9.202;2023-10-31T07:39:12;2.37;;;1.00;;
17207;SDS011;8720;48.488;9.202;2023-10-31T07:41:39;1.40;;;0.80;;
17207;SDS011;8720;48.488;9.202;2023-10-31T07:44:09;1.63;;;1.00;;
17207;SDS011;8720;48.488;9.202;2023-10-31T07:46:36;2.40;;;0.90;;
17207;SDS011;8720;48.488;9.202;2023-10-31T07:49:05;1.53;;;1.00;;
17207;SDS011;8720;48.488;9.202;2023-10-31T07:51:33;3.27;;;1.03;;
17207;SDS011;8720;48.488;9.202;2023-10-31T07:54:00;1.77;;;0.90;;
17207;SDS011;8720;48.488;9.202;2023-10-31T07:56:28;1.67;;;0.80;;
17207;SDS011;8720;48.488;9.202;2023-10-31T07:58:55;1.60;;;0.90;;
17207;SDS011;8720;48.488;9.202;2023-10-31T08:01:22;1.90;;;0.83;;
17207;SDS011;8720;48.488;9.202;2023-10-31T08:03:50;1.60;;;1.10;;
17207;SDS011;8720;48.488;9.202;2023-10-31T08:06:19;1.30;;;0.90;;
17207;SDS011;8720;48.488;9.202;2023-10-31T08:08:46;1.30;;;0.90;;
17207;SDS011;8720;48.488;9.202;2023-10-31T08:11:14;1.57;;;1.00;;
17207;SDS011;8720;48.488;9.202;2023-10-31T08:13:41;3.07;;;1.10;;
17207;SDS011;8720;48.488;9.202;2023-10-31T08:16:08;1.10;;;0.80;;
17207;SDS011;8720;48.488;9.202;2023-10-31T08:18:36;2.37;;;1.03;;
17207;SDS011;8720;48.488;9.202;2023-10-31T08:21:03;2.37;;;1.03;;
17207;SDS011;8720;48.488;9.202;2023-10-31T08:23:32;2.30;;;1.50;;
17207;SDS011;8720;48.488;9.202;2023-10-31T08:26:00;2.03;;;1.40;;
17207;SDS011;8720;48.488;9.202;2023-10-31T08:28:27;2.50;;;1.20;;
17207;SDS011;8720;48.488;9.202;2023-10-31T08:30:56;1.60;;;1.23;;
17207;SDS011;8720;48.488;9.202;2023-10-31T08:33:23;2.33;;;1.00;;
17207;SDS011;8720;48.488;9.202;2023-10-31T08:35:51;2.73;;;0.93;;
17207;SDS011;8720;48.488;9.202;2023-10-31T08:38:18;1.30;;;0.80;;
17207;SDS011;8720;48.488;9.202;2023-10-31T08:40:47;2.37;;;1.07;;
17207;SDS011;8720;48.488;9.202;2023-10-31T08:43:15;3.07;;;0.93;;
17207;SDS011;8720;48.488;9.202;2023-10-31T08:45:42;1.30;;;0.80;;
17207;SDS011;8720;48.488;9.202;2023-10-31T08:48:10;3.00;;;1.03;;
17207;SDS011;8720;48.488;9.202;2023-10-31T08:50:37;2.10;;;1.30;;
17207;SDS011;8720;48.488;9.202;2023-10-31T08:53:05;1.20;;;0.93;;
17207;SDS011;8720;48.488;9.202;2023-10-31T08:55:32;3.03;;;1.20;;
17207;SDS011;8720;48.488;9.202;2023-10-31T08:58:01;2.23;;;1.20;;
17207;SDS011;8720;48.488;9.202;2023-10-31T09:00:29;2.13;;;1.10;;
17207;SDS011;8720;48.488;9.202;2023-10-31T09:02:56;1.90;;;1.20;;
17207;SDS011;8720;48.488;9.202;2023-10-31T09:05:24;2.23;;;1.00;;
17207;SDS011;8720;48.488;9.202;2023-10-31T09:07:51;4.77;;;1.27;;
17207;SDS011;8720;48.488;9.202;2023-10-31T09:10:18;1.70;;;1.00;;
17207;SDS011;8720;48.488;9.202;2023-10-31T09:12:46;1.40;;;1.00;;
17207;SDS011;8720;48.488;9.202;2023-10-31T09:15:15;3.10;;;1.20;;
17207;SDS011;8720;48.488;9.202;2023-10-31T09:17:44;3.00;;;1.23;;
17207;SDS011;8720;48.488;9.202;2023-10-31T09:20:11;3.43;;;1.33;;
17207;SDS011;8720;48.488;9.202;2023-10-31T09:22:39;2.33;;;1.00;;
17207;SDS011;8720;48.488;9.202;2023-10-31T09:25:07;3.40;;;1.10;;
17207;SDS011;8720;48.488;9.202;2023-10-31T09:27:36;3.60;;;1.23;;
17207;SDS011;8720;48.488;9.202;2023-10-31T09:30:06;2.63;;;1.30;;
17207;SDS011;8720;48.488;9.202;2023-10-31T09:32:36;5.30;;;1.60;;
17207;SDS011;8720;48.488;9.202;2023-10-31T09:35:04;2.13;;;1.00;;
17207;SDS011;8720;48.488;9.202;2023-10-31T09:37:33;3.50;;;1.13;;
17207;SDS011;8720;48.488;9.202;2023-10-31T09:40:00;2.30;;;1.03;;
17207;SDS011;8720;48.488;9.202;2023-10-31T09:42:28;4.53;;;1.20;;
17207;SDS011;8720;48.488;9.202;2023-10-31T09:44:56;1.90;;;1.30;;
17207;SDS011;8720;48.488;9.202;2023-10-31T09:47:23;2.13;;;1.00;;
17207;SDS011;8720;48.488;9.202;2023-10-31T09:49:53;2.00;;;1.20;;
17207;SDS011;8720;48.488;9.202;2023-10-31T09:52:20;4.07;;;1.17;;
17207;SDS011;8720;48.488;9.202;2023-10-31T09:54:49;3.20;;;1.30;;
17207;SDS011;8720;48.488;9.202;2023-10-31T09:57:19;2.40;;;1.20;;
17207;SDS011;8720;48.488;9.202;2023-10-31T09:59:47;4.27;;;1.33;;
17207;SDS011;8720;48.488;9.202;2023-10-31T10:02:14;2.80;;;1.23;;
17207;SDS011;8720;48.488;9.202;2023-10-31T10:04:41;1.60;;;1.23;;
17207;SDS011;8720;48.488;9.202;2023-10-31T10:07:10;4.77;;;1.40;;
17207;SDS011;8720;48.488;9.202;2023-10-31T10:09:43;3.53;;;1.40;;
17207;SDS011;8720;48.488;9.202;2023-10-31T10:12:12;2.70;;;1.20;;
17207;SDS011;8720;48.488;9.202;2023-10-31T10:14:41;1.93;;;1.27;;
17207;SDS011;8720;48.488;9.202;2023-10-31T10:17:15;2.13;;;1.13;;
17207;SDS011;8720;48.488;9.202;2023-10-31T10:19:44;2.73;;;1.13;;
17207;SDS011;8720;48.488;9.202;2023-10-31T10:22:12;2.50;;;1.40;;
17207;SDS011;8720;48.488;9.202;2023-10-31T10:24:40;2.17;;;0.90;;
17207;SDS011;8720;48.488;9.202;2023-10-31T10:27:08;1.57;;;0.90;;
17207;SDS011;8720;48.488;9.202;2023-10-31T10:29:37;2.00;;;0.97;;
17207;SDS011;8720;48.488;9.202;2023-10-31T10:32:07;3.30;;;1.20;;
17207;SDS011;8720;48.488;9.202;2023-10-31T10:34:34;2.67;;;1.17;;
17207;SDS011;8720;48.488;9.202;2023-10-31T10:37:03;1.67;;;1.17;;
17207;SDS011;8720;48.488;9.202;2023-10-31T10:39:34;3.20;;;1.20;;
17207;SDS011;8720;48.488;9.202;2023-10-31T10:42:07;2.90;;;1.20;;
17207;SDS011;8720;48.488;9.202;2023-10-31T10:44:38;1.93;;;1.20;;
17207;SDS011;8720;48.488;9.202;2023-10-31T10:47:13;2.27;;;1.20;;
17207;SDS011;8720;48.488;9.202;2023-10-31T10:49:42;2.47;;;1.50;;
17207;SDS011;8720;48.488;9.202;2023-10-31T10:52:14;2.77;;;1.30;;
17207;SDS011;8720;48.488;9.202;2023-10-31T10:54:58;2.57;;;1.27;;
17207;SDS011;8720;48.488;9.202;2023-10-31T10:57:36;2.57;;;1.30;;
17207;SDS011;8720;48.488;9.202;2023-10-31T11:00:12;1.70;;;1.00;;
17207;SDS011;8720;48.488;9.202;2023-10-31T11:02:42;1.87;;;1.00;;
17207;SDS011;8720;48.488;9.202;2023-10-31T11:05:10;2.23;;;1.20;;
17207;SDS011;8720;48.488;9.202;2023-10-31T11:07:40;3.00;;;0.90;;
17207;SDS011;8720;48.488;9.202;2023-10-31T11:10:10;1.20;;;0.83;;
17207;SDS011;8720;48.488;9.202;2023-10-31T11:12:38;2.60;;;1.10;;
17207;SDS011;8720;48.488;9.202;2023-10-31T11:15:06;3.10;;;0.97;;
17207;SDS011;8720;48.488;9.202;2023-10-31T11:17:40;2.53;;;1.10;;
17207;SDS011;8720;48.488;9.202;2023-10-31T11:20:11;4.30;;;1.07;;
17207;SDS011;8720;48.488;9.202;2023-10-31T11:22:41;2.10;;;0.90;;
17207;SDS011;8720;48.488;9.202;2023-10-31T11:25:13;1.60;;;0.90;;
17207;SDS011;8720;48.488;9.202;2023-10-31T11:27:44;2.20;;;0.93;;
17207;SDS011;8720;48.488;9.202;2023-10-31T11:30:19;6.10;;;1.10;;
17207;SDS011;8720;48.488;9.202;2023-10-31T11:32:48;1.60;;;1.00;;
17207;SDS011;8720;48.488;9.202;2023-10-31T11:35:18;1.30;;;0.70;;
17207;SDS011;8720;48.488;9.202;2023-10-31T11:37:47;1.10;;;0.70;;
17207;SDS011;8720;48.488;9.202;2023-10-31T11:40:17;1.40;;;0.70;;
17207;SDS011;8720;48.488;9.202;2023-10-31T11:42:47;1.20;;;0.90;;
17207;SDS011;8720;48.488;9.202;2023-10-31T11:45:29;1.10;;;0.70;;
17207;SDS011;8720;48.488;9.202;2023-10-31T11:48:01;1.37;;;1.00;;
17207;SDS011;8720;48.488;9.202;2023-10-31T11:50:30;0.90;;;0.60;;
17207;SDS011;8720;48.488;9.202;2023-10-31T11:52:58;1.20;;;0.70;;
17207;SDS011;8720;48.488;9.202;2023-10-31T11:55:28;1.53;;;0.80;;
17207;SDS011;8720;48.488;9.202;2023-10-31T11:57:59;1.40;;;1.20;;
17207;SDS011;8720;48.488;9.202;2023-10-31T12:00:41;1.77;;;0.70;;
17207;SDS011;8720;48.488;9.202;2023-10-31T12:03:10;1.90;;;1.30;;
17207;SDS011;8720;48.488;9.202;2023-10-31T12:05:38;1.40;;;0.90;;
17207;SDS011;8720;48.488;9.202;2023-10-31T12:08:05;1.80;;;1.23;;
17207;SDS011;8720;48.488;9.202;2023-10-31T12:10:34;4.83;;;0.80;;
17207;SDS011;8720;48.488;9.202;2023-10-31T12:13:01;1.10;;;0.70;;
17207;SDS011;8720;48.488;9.202;2023-10-31T12:15:29;1.70;;;0.70;;
17207;SDS011;8720;48.488;9.202;2023-10-31T12:17:59;1.77;;;0.83;;
17207;SDS011;8720;48.488;9.202;2023-10-31T12:20:27;3.60;;;0.90;;
17207;SDS011;8720;48.488;9.202;2023-10-31T12:23:03;1.20;;;0.83;;
17207;SDS011;8720;48.488;9.202;2023-10-31T12:25:30;1.13;;;0.60;;
17207;SDS011;8720;48.488;9.202;2023-10-31T12:28:02;1.10;;;0.67;;
17207;SDS011;8720;48.488;9.202;2023-10-31T12:30:29;1.40;;;1.00;;
17207;SDS011;8720;48.488;9.202;2023-10-31T12:32:58;2.00;;;1.60;;
17207;SDS011;8720;48.488;9.202;2023-10-31T12:35:26;2.83;;;1.70;;
17207;SDS011;8720;48.488;9.202;2023-10-31T12:37:54;1.50;;;0.90;;
17207;SDS011;8720;48.488;9.202;2023-10-31T12:40:22;1.57;;;0.90;;
17207;SDS011;8720;48.488;9.202;2023-10-31T12:42:51;1.40;;;0.97;;
17207;SDS011;8720;48.488;9.202;2023-10-31T12:45:21;2.00;;;0.87;;
17207;SDS011;8720;48.488;9.202;2023-10-31T12:48:01;2.47;;;0.80;;
17207;SDS011;8720;48.488;9.202;2023-10-31T12:50:30;1.67;;;0.90;;
17207;SDS011;8720;48.488;9.202;2023-10-31T12:52:58;1.70;;;0.90;;
17207;SDS011;8720;48.488;9.202;2023-10-31T12:55:28;1.97;;;0.90;;
17207;SDS011;8720;48.488;9.202;2023-10-31T12:57:57;1.67;;;0.80;;
17207;SDS011;8720;48.488;9.202;2023-10-31T13:00:31;1.20;;;0.80;;
17207;SDS011;8720;48.488;9.202;2023-10-31T13:03:02;1.50;;;0.70;;
17207;SDS011;8720;48.488;9.202;2023-10-31T13:05:32;1.93;;;0.90;;
17207;SDS011;8720;48.488;9.202;2023-10-31T13:08:00;1.80;;;0.80;;
17207;SDS011;8720;48.488;9.202;2023-10-31T13:10:30;1.77;;;0.70;;
17207;SDS011;8720;48.488;9.202;2023-10-31T13:12:58;1.30;;;0.80;;
17207;SDS011;8720;48.488;9.202;2023-10-31T13:15:26;2.07;;;1.17;;
17207;SDS011;8720;48.488;9.202;2023-10-31T13:17:55;2.53;;;1.20;;
17207;SDS011;8720;48.488;9.202;2023-10-31T13:20:23;1.77;;;1.00;;
17207;SDS011;8720;48.488;9.202;2023-10-31T13:22:50;1.73;;;0.83;;
17207;SDS011;8720;48.488;9.202;2023-10-31T13:25:18;1.37;;;0.90;;
17207;SDS011;8720;48.488;9.202;2023-10-31T13:27:46;1.10;;;0.80;;
17207;SDS011;8720;48.488;9.202;2023-10-31T13:30:16;1.20;;;0.90;;
17207;SDS011;8720;48.488;9.202;2023-10-31T13:32:44;1.30;;;0.80;;
17207;SDS011;8720;48.488;9.202;2023-10-31T13:35:13;1.83;;;0.90;;
17207;SDS011;8720;48.488;9.202;2023-10-31T13:37:41;1.63;;;0.70;;
17207;SDS011;8720;48.488;9.202;2023-10-31T13:40:08;1.40;;;0.70;;
17207;SDS011;8720;48.488;9.202;2023-10-31T13:42:36;2.33;;;1.00;;
17207;SDS011;8720;48.488;9.202;2023-10-31T13:45:05;2.13;;;1.17;;
17207;SDS011;8720;48.488;9.202;2023-10-31T13:47:33;2.10;;;1.37;;
17207;SDS011;8720;48.488;9.202;2023-10-31T13:50:03;1.83;;;1.00;;
17207;SDS011;8720;48.488;9.202;2023-10-31T13:52:35;2.20;;;1.97;;
17207;SDS011;8720;48.488;9.202;2023-10-31T13:55:03;2.53;;;1.87;;
17207;SDS011;8720;48.488;9.202;2023-10-31T13:57:32;1.90;;;1.80;;
17207;SDS011;8720;48.488;9.202;2023-10-31T13:59:59;4.13;;;1.63;;
17207;SDS011;8720;48.488;9.202;2023-10-31T14:02:26;1.50;;;1.30;;
17207;SDS011;8720;48.488;9.202;2023-10-31T14:04:55;1.43;;;0.83;;
17207;SDS011;8720;48.488;9.202;2023-10-31T14:07:22;2.87;;;1.10;;
17207;SDS011;8720;48.488;9.202;2023-10-31T14:09:51;2.50;;;0.80;;
17207;SDS011;8720;48.488;9.202;2023-10-31T14:12:21;1.20;;;0.80;;
17207;SDS011;8720;48.488;9.202;2023-10-31T14:14:49;1.77;;;1.03;;
17207;SDS011;8720;48.488;9.202;2023-10-31T14:17:16;1.47;;;1.00;;
17207;SDS011;8720;48.488;9.202;2023-10-31T14:19:44;1.10;;;0.80;;
17207;SDS011;8720;48.488;9.202;2023-10-31T14:22:12;1.70;;;0.80;;
17207;SDS011;8720;48.488;9.202;2023-10-31T14:24:39;1.20;;;0.70;;
17207;SDS011;8720;48.488;9.202;2023-10-31T14:27:08;1.10;;;0.80;;
17207;SDS011;8720;48.488;9.202;2023-10-31T14:29:35;1.33;;;0.80;;
17207;SDS011;8720;48.488;9.202;2023-10-31T14:32:06;1.30;;;0.87;;
17207;SDS011;8720;48.488;9.202;2023-10-31T14:34:34;2.07;;;0.90;;
17207;SDS011;8720;48.488;9.202;2023-10-31T14:37:02;1.50;;;1.10;;
17207;SDS011;8720;48.488;9.202;2023-10-31T14:39:31;2.10;;;0.93;;
17207;SDS011;8720;48.488;9.202;2023-10-31T14:41:58;1.43;;;0.80;;
17207;SDS011;8720;48.488;9.202;2023-10-31T14:44:27;2.30;;;0.90;;
17207;SDS011;8720;48.488;9.202;2023-10-31T14:46:55;1.40;;;0.90;;
17207;SDS011;8720;48.488;9.202;2023-10-31T14:49:22;1.40;;;0.80;;
17207;SDS011;8720;48.488;9.202;2023-10-31T14:51:50;2.53;;;1.03;;
17207;SDS011;8720;48.488;9.202;2023-10-31T14:54:17;1.93;;;0.80;;
17207;SDS011;8720;48.488;9.202;2023-10-31T14:56:46;2.07;;;0.80;;
17207;SDS011;8720;48.488;9.202;2023-10-31T14:59:13;1.80;;;1.10;;
17207;SDS011;8720;48.488;9.202;2023-10-31T15:01:42;1.10;;;0.80;;
17207;SDS011;8720;48.488;9.202;2023-10-31T15:04:10;1.33;;;0.80;;
17207;SDS011;8720;48.488;9.202;2023-10-31T15:06:38;2.27;;;1.20;;
17207;SDS011;8720;48.488;9.202;2023-10-31T15:09:05;1.30;;;0.97;;